Accueil
METAR-TAF:

METAR-TAF

Aéroports :

Morrisville-Stowe State Airport

Morrisville, Vermont, États-Unis

latitude: 44-32-10N, longitude: 072-36-58W, altitude: 223 m

Observation

Le bulletin a été fait il y a 1 heure et 1 minutes, à 18:54 UTC
Vent calme
Température 15°C
Humidité 88%
Pression 1018 hPa
Visibilité: 16.1 km
Ciel couvert à une hauteur de 6000 ft
pluie faible

METAR: KMVL 221854Z AUTO 00000KT 10SM -RA OVC060 15/13 A3007 RMK AO2 SLP185 P0002 T01500133

Heure: 15:55 (19:55 UTC)


TAF: absent

Observations et prévisions météorologiques de plus de 4000 aéroports (messages METAR et TAF).

Les stations disponibles sont représentées par des disques jaunes et rouges sur la carte.

Passer la souris dessus pour voir le nom de la station.

Cliquer dessus pour voir les observations et prévisions météorologiques.

Pour changer de carte: cliquez sur les boutons verts avec une croix noire pour zoomer, sur le bouton vert avec un tiret pour effectuer un zoom arrière, ou sur les flèches vertes pour les cartes adjacentes.


METAR-TAF: